Latest Weather Observations for Daly Waters

IDD60801

Issued at 6:31 pm CST Tuesday 23 May 2017 (issued every 30 minutes, with the page automatically refreshed every 10 minutes)

About weather observations | Map of weather stations | Latest weather observations for NT | Other Formats
Station Details ID: 014626 Name: DALY WATERS AIRSTRIP Lat: -16.26 Lon: 133.38 Height: 209.84 m
Data from the previous 72 hours. | See also: Recent months at Daly Waters
Date/Time
CST
Temp
°C
App
Temp
°C
Dew
Point
°C
Rel
Hum
%
Delta-T
°C
Wind Press
QNH
hPa
Press
MSL
hPa
Rain since
9am
mm
Dir  Spd
km/h
Gust
km/h
Spd
kts
Gust
kts
23/06:30pm 24.8 25.5 12.1 45 7.3 CALM 0 2 0 1 1013.2 1012.3 0.0
23/06:00pm 28.8 28.2 11.8 35 9.9 SE 6 7 3 4 1012.9 1011.9 0.0
23/05:30pm 32.1 31.2 11.3 28 12.2 ESE 7 13 4 7 1012.6 1011.6 0.0
23/05:00pm 33.2 31.1 11.1 26 13.0 E 13 19 7 10 1012.4 1011.4 0.0
23/04:30pm 33.8 31.7 11.0 25 13.4 ESE 13 19 7 10 1012.2 1011.2 0.0
23/04:00pm 34.2 32.5 12.5 27 13.1 E 13 22 7 12 1012.2 1011.2 0.0
23/03:30pm 34.1 32.2 11.9 26 13.3 ESE 13 22 7 12 1012.4 1011.4 0.0
23/03:00pm 33.9 32.7 12.8 28 12.8 SE 11 26 6 14 1012.5 1011.5 0.0
23/02:30pm 34.6 33.4 12.9 27 13.2 E 11 22 6 12 1012.8 1011.8 0.0
23/02:00pm 33.8 33.1 13.3 29 12.5 SE 9 22 5 12 1013.2 1012.3 0.0
23/01:30pm 33.9 32.8 14.4 31 12.1 ESE 13 24 7 13 1013.8 1012.8 0.0
23/01:00pm 33.0 32.1 13.6 31 11.8 ESE 11 22 6 12 1014.5 1013.5 0.0
23/12:30pm 33.6 33.0 14.6 31 11.8 ENE 11 22 6 12 1015.2 1014.2 0.0
23/12:00pm 32.8 31.4 14.4 33 11.4 ENE 15 22 8 12 1015.7 1014.7 0.0
23/11:30am 32.5 30.8 14.6 34 11.1 ENE 17 24 9 13 1016.1 1015.1 0.0
23/11:00am 31.6 31.2 15.1 36 10.2 E 11 19 6 10 1016.3 1015.3 0.0
23/10:30am 30.7 30.7 16.3 42 9.1 E 11 19 6 10 1016.5 1015.5 0.0
23/10:00am 29.8 31.0 17.3 47 8.0 E 7 11 4 6 1016.7 1015.7 0.0
23/09:30am 28.1 29.6 17.6 53 6.7 E 6 13 3 7 1016.7 1015.7 0.0
23/09:00am 26.1 27.8 18.0 61 5.2 ESE 6 9 3 5 1016.6 1015.6 0.0
23/08:30am 23.9 25.9 17.9 69 3.8 SE 4 6 2 3 1016.4 1015.4 0.0
23/08:00am 20.0 22.1 17.2 84 1.7 SSE 2 4 1 2 1016.2 1015.2 0.0
23/07:30am 16.1 17.3 14.8 92 0.8 SSE 2 4 1 2 1015.7 1014.7 0.0
23/07:00am 15.5 16.4 13.9 90 0.9 SE 2 2 1 1 1015.4 1014.4 0.0
23/06:30am 15.7 16.2 14.1 90 0.9 SSE 4 6 2 3 1015.2 1014.2 0.0
23/06:00am 15.8 16.4 14.2 90 0.9 SSE 4 4 2 2 1015.1 1014.1 0.0
23/05:30am 15.8 16.3 14.0 89 1.0 SSE 4 6 2 3 1014.9 1013.9 0.0
23/05:00am 16.0 16.6 14.2 89 1.0 SSE 4 4 2 2 1014.6 1013.6 0.0
23/04:30am 16.1 17.5 14.3 89 1.0 CALM 0 0 0 0 1014.5 1013.5 0.0
23/04:00am 16.5 17.9 14.5 88 1.2 CALM 0 0 0 0 1014.4 1013.4 0.0
23/03:30am 16.8 17.9 14.6 87 1.3 SSE 2 2 1 1 1014.5 1013.5 0.0
23/03:00am 17.1 17.9 14.7 86 1.4 SSE 4 4 2 2 1014.7 1013.7 0.0
23/02:30am 17.3 18.1 14.9 86 1.4 SSE 4 6 2 3 1014.9 1013.9 0.0
23/01:30am 18.4 19.7 15.1 81 1.9 SSE 2 4 1 2 1015.3 1014.3 0.0
23/01:00am 18.9 20.0 15.6 81 2.0 SSE 4 6 2 3 1015.4 1014.4 0.0
23/12:30am 19.3 20.0 15.6 79 2.2 SSE 6 6 3 3 1015.4 1014.4 0.0
23/12:00am 19.0 20.9 15.7 81 2.0 CALM 0 4 0 2 1015.3 1014.3 0.0
 
Date/Time
CST
Temp
°C
App
Temp
°C
Dew
Point
°C
Rel
Hum
%
Delta-T
°C
Wind Press
QNH
hPa
Press
MSL
hPa
Rain since
9am
mm
Dir  Spd
km/h
Gust
km/h
Spd
kts
Gust
kts
22/11:30pm 19.5 21.3 15.6 78 2.3 CALM 0 2 0 1 1015.5 1014.5 0.0
22/11:00pm 20.6 21.8 15.8 74 2.9 ENE 4 9 2 5 1015.4 1014.4 0.0
22/10:30pm 20.1 21.4 16.1 78 2.4 SE 4 4 2 2 1015.2 1014.2 0.0
22/10:00pm 20.6 22.5 15.8 74 2.9 CALM 0 0 0 0 1015.2 1014.2 0.0
22/09:30pm 21.5 22.8 16.2 72 3.2 SE 4 6 2 3 1015.1 1014.1 0.0
22/09:00pm 22.1 23.7 17.0 73 3.1 SE 4 6 2 3 1015.0 1014.0 0.0
22/08:30pm 22.3 23.9 17.0 72 3.3 SSE 4 6 2 3 1014.8 1013.8 0.0
22/08:00pm 22.6 24.6 16.9 70 3.5 SE 2 4 1 2 1014.5 1013.5 0.0
22/07:30pm 23.3 25.5 16.6 66 4.1 CALM 0 4 0 2 1013.9 1012.9 0.0
22/07:00pm 24.8 26.9 16.2 58 5.3 CALM 0 2 0 1 1013.4 1012.5 0.0
22/06:30pm 26.9 28.2 16.2 52 6.6 SSE 4 4 2 2 1013.0 1012.0 0.0
22/06:00pm 30.5 32.0 15.8 41 9.2 E 2 6 1 3 1012.7 1011.7 0.0
22/05:30pm 32.8 33.3 14.9 34 11.1 E 6 9 3 5 1012.3 1011.3 0.0
22/05:00pm 33.5 33.2 14.5 31 11.8 ENE 9 13 5 7 1012.1 1011.1 0.0
22/04:30pm 34.1 34.8 15.5 32 11.7 E 6 9 3 5 1011.9 1010.9 0.0
22/04:00pm 32.5 32.8 15.1 35 10.8 ESE 7 11 4 6 1011.8 1010.8 0.0
22/03:30pm 35.2 36.1 16.0 31 12.2 ENE 6 15 3 8 1011.8 1010.8 0.0
22/03:00pm 34.4 34.8 15.3 31 12.0 ENE 7 15 4 8 1011.9 1010.9 0.0
22/02:30pm 33.1 33.4 15.1 33 11.2 E 7 15 4 8 1012.4 1011.4 0.0
22/02:00pm 34.8 35.0 15.7 32 12.1 ESE 9 17 5 9 1012.7 1011.7 0.0
22/01:30pm 34.0 34.1 15.5 33 11.7 NE 9 20 5 11 1013.1 1012.2 0.0
22/01:00pm 33.3 33.1 15.8 35 11.0 E 11 20 6 11 1013.7 1012.7 0.0
22/12:30pm 33.2 32.6 15.7 35 11.0 ENE 13 22 7 12 1014.3 1013.3 0.0
22/12:00pm 32.6 31.8 16.0 36 10.5 E 15 22 8 12 1014.7 1013.7 0.0
22/11:30am 32.6 32.8 17.6 40 9.7 E 13 24 7 13 1015.3 1014.3 0.0
22/11:00am 32.1 32.4 17.9 42 9.2 ENE 13 20 7 11 1015.6 1014.6 0.0
22/10:30am 30.8 31.2 18.2 47 8.2 ENE 13 20 7 11 1015.9 1014.9 0.0
22/10:00am 30.2 30.9 18.9 50 7.4 ENE 13 22 7 12 1016.0 1015.0 0.0
22/09:30am 29.1 30.6 19.7 57 6.2 ENE 11 19 6 10 1016.0 1015.0 0.0
22/09:00am 26.6 29.5 20.7 70 3.9 E 6 11 3 6 1016.0 1015.0 0.0
22/08:30am 24.4 27.1 20.3 78 2.7 ESE 6 9 3 5 1015.6 1014.6 0.0
22/08:00am 21.7 24.8 19.6 88 1.3 SE 2 6 1 3 1015.4 1014.4 0.0
22/07:30am 18.4 20.1 17.2 93 0.7 S 4 4 2 2 1015.3 1014.3 0.0
22/07:00am 17.4 19.4 15.9 91 0.9 CALM 0 0 0 0 1015.1 1014.1 0.0
22/06:30am 17.5 19.4 15.8 90 1.0 CALM 0 0 0 0 1014.8 1013.8 0.0
22/06:00am 17.7 19.8 16.2 91 0.9 CALM 0 0 0 0 1014.6 1013.6 0.0
22/05:30am 17.9 20.0 16.2 90 1.0 CALM 0 0 0 0 1014.2 1013.2 0.0
22/05:00am 17.9 20.0 16.2 90 1.0 CALM 0 0 0 0 1013.9 1012.9 0.0
22/04:30am 18.2 20.4 16.4 89 1.1 CALM 0 0 0 0 1013.7 1012.7 0.0
22/04:00am 18.3 20.4 16.3 88 1.2 CALM 0 0 0 0 1013.3 1012.4 0.0
22/03:30am 18.6 20.8 16.6 88 1.2 CALM 0 0 0 0 1013.2 1012.3 0.0
22/03:00am 18.8 21.1 16.8 88 1.2 CALM 0 0 0 0 1013.2 1012.3 0.0
22/02:30am 19.0 21.4 17.0 88 1.2 CALM 0 0 0 0 1013.3 1012.4 0.0
22/02:00am 19.3 21.7 17.1 87 1.3 CALM 0 0 0 0 1013.3 1012.4 0.0
22/01:30am 19.5 21.9 17.1 86 1.5 CALM 0 0 0 0 1013.3 1012.4 0.0
22/01:00am 19.7 22.2 17.3 86 1.5 CALM 0 0 0 0 1013.3 1012.4 0.0
22/12:30am 19.8 22.3 17.2 85 1.6 CALM 0 0 0 0 1013.3 1012.4 0.0
22/12:00am 20.1 22.6 17.3 84 1.7 CALM 0 0 0 0 1013.3 1012.4 0.0
 
Date/Time
CST
Temp
°C
App
Temp
°C
Dew
Point
°C
Rel
Hum
%
Delta-T
°C
Wind Press
QNH
hPa
Press
MSL
hPa
Rain since
9am
mm
Dir  Spd
km/h
Gust
km/h
Spd
kts
Gust
kts
21/11:30pm 20.4 23.0 17.6 84 1.7 CALM 0 0 0 0 1013.4 1012.5 0.0
21/11:00pm 20.8 23.1 17.8 83 1.9 ESE 2 2 1 1 1013.6 1012.6 0.0
21/10:30pm 21.3 24.1 17.9 81 2.1 CALM 0 2 0 1 1013.6 1012.6 0.0
21/10:00pm 21.5 23.9 17.9 80 2.3 NE 2 2 1 1 1013.3 1012.4 0.0
21/09:30pm 22.1 24.6 18.1 78 2.5 ENE 2 4 1 2 1013.2 1012.3 0.0
21/09:00pm 22.3 24.4 18.1 77 2.6 ENE 4 4 2 2 1013.0 1012.0 0.0
21/08:30pm 22.8 25.3 18.1 75 3.0 E 2 2 1 1 1012.8 1011.8 0.0
21/08:00pm 23.4 26.1 17.8 71 3.5 CALM 0 0 0 0 1012.4 1011.4 0.0
21/07:30pm 24.0 26.7 17.7 68 4.0 CALM 0 2 0 1 1011.9 1010.9 0.0
21/07:00pm 25.5 27.4 17.7 62 4.9 NE 4 6 2 3 1011.5 1010.5 0.0
21/06:30pm 27.5 29.1 17.9 55 6.1 NE 6 7 3 4 1011.1 1010.1 0.0
21/06:00pm 29.5 31.2 18.0 50 7.4 ENE 6 9 3 5 1010.9 1009.9 0.0
21/05:30pm 31.0 32.1 18.0 45 8.4 ENE 9 13 5 7 1010.6 1009.6 0.0
21/05:00pm 31.8 32.1 18.0 43 8.9 ENE 13 26 7 14 1010.4 1009.4 0.0
21/04:30pm 32.6 33.3 18.0 41 9.5 ENE 11 19 6 10 1010.4 1009.4 0.0
21/04:00pm 32.2 32.7 18.4 44 9.0 ENE 13 19 7 10 1010.5 1009.5 0.0
21/03:30pm 31.9 32.0 17.4 42 9.3 E 13 19 7 10 1010.5 1009.5 0.0
21/03:00pm 32.8 33.4 18.6 43 9.3 ENE 13 20 7 11 1010.6 1009.6 0.0
21/02:30pm 32.7 33.3 18.5 43 9.3 ENE 13 20 7 11 1010.8 1009.8 0.0
21/02:00pm 32.9 33.2 18.7 43 9.3 ENE 15 24 8 13 1011.2 1010.2 0.0
21/01:30pm 33.3 33.0 18.3 41 9.8 NE 17 26 9 14 1011.7 1010.7 0.0
21/01:00pm 32.7 32.1 18.5 43 9.3 NE 19 30 10 16 1012.1 1011.1 0.0
21/12:30pm 32.0 30.8 17.1 41 9.5 ENE 19 30 10 16 1012.7 1011.7 0.0
21/12:00pm 32.1 31.8 18.3 44 9.0 ENE 17 30 9 16 1013.1 1012.2 0.0
21/11:30am 31.2 30.9 18.2 46 8.4 ENE 17 33 9 18 1013.6 1012.6 0.0
21/11:00am 30.1 29.3 17.9 48 7.9 E 19 32 10 17 1014.0 1013.0 0.0
21/10:30am 30.5 30.5 18.9 50 7.6 E 17 26 9 14 1014.1 1013.1 0.0
21/10:00am 29.1 29.0 18.8 53 6.7 E 17 22 9 12 1014.2 1013.2 0.0
21/09:30am 28.2 29.5 19.2 58 5.9 E 11 19 6 10 1014.2 1013.2 0.0
21/09:00am 26.7 28.6 19.8 66 4.5 E 9 13 5 7 1014.0 1013.0 0.0
21/08:30am 24.1 26.4 19.8 77 2.8 ESE 7 13 4 7 1013.7 1012.7 0.0
21/08:00am 21.8 24.4 20.1 90 1.1 SE 6 7 3 4 1013.3 1012.4 0.0
21/07:30am 17.6 19.7 16.3 92 0.8 CALM 0 0 0 0 1013.0 1012.0 0.0
21/07:00am 17.1 18.9 15.6 91 0.9 CALM 0 0 0 0 1012.7 1011.7 0.0
21/06:30am 17.2 19.1 15.7 91 0.9 CALM 0 0 0 0 1012.4 1011.4 0.0
21/06:00am 17.2 19.0 15.4 89 1.1 CALM 0 0 0 0 1012.0 1011.0 0.0
21/05:30am 17.4 19.2 15.6 89 1.1 CALM 0 2 0 1 1011.8 1010.8 0.0
21/05:00am 17.6 19.1 15.8 89 1.1 SSE 2 4 1 2 1011.6 1010.6 0.0
21/04:30am 17.8 19.4 16.0 89 1.1 SSE 2 4 1 2 1011.4 1010.4 0.0
21/04:00am 17.8 19.0 16.0 89 1.1 S 4 6 2 3 1011.3 1010.3 0.0
21/03:30am 18.1 20.2 16.3 89 1.1 CALM 0 0 0 0 1011.5 1010.5 0.0
21/03:00am 18.3 19.7 16.3 88 1.2 SSE 4 6 2 3 1011.5 1010.5 0.0
21/02:30am 18.6 20.3 16.2 86 1.4 SE 2 4 1 2 1011.6 1010.6 0.0
21/02:00am 19.1 20.5 16.3 84 1.7 SSE 4 6 2 3 1011.9 1010.9 0.0
21/01:30am 19.8 21.8 17.0 84 1.7 SSE 2 4 1 2 1012.1 1011.1 0.0
21/01:00am 20.6 22.3 17.2 81 2.1 SE 4 4 2 2 1012.3 1011.3 0.0
21/12:30am 21.5 23.5 17.9 80 2.3 SE 4 6 2 3 1012.4 1011.4 0.0
21/12:00am 22.0 24.0 17.8 77 2.6 SE 4 6 2 3 1012.5 1011.5 0.0
 
Date/Time
CST
Temp
°C
App
Temp
°C
Dew
Point
°C
Rel
Hum
%
Delta-T
°C
Wind Press
QNH
hPa
Press
MSL
hPa
Rain since
9am
mm
Dir  Spd
km/h
Gust
km/h
Spd
kts
Gust
kts
20/11:30pm 23.7 25.6 18.6 73 3.3 ESE 6 9 3 5 1012.5 1011.5 0.0
20/11:00pm 24.4 26.4 19.2 73 3.4 E 7 13 4 7 1012.7 1011.7 0.0
20/10:30pm 22.5 23.2 17.0 71 3.4 E 9 20 5 11 1012.7 1011.7 0.0
20/10:00pm 19.5 20.7 16.0 80 2.1 SSE 4 4 2 2 1012.1 1011.1 0.0
20/09:30pm 19.6 20.7 15.7 78 2.3 SSE 4 4 2 2 1012.1 1011.1 0.0
20/09:00pm 20.0 21.2 15.8 77 2.5 SSE 4 6 2 3 1011.9 1010.9 0.0
20/08:30pm 20.4 21.6 15.8 75 2.8 SSE 4 4 2 2 1011.7 1010.7 0.0
20/08:00pm 21.0 22.2 16.0 73 3.0 S 4 4 2 2 1011.2 1010.2 0.0
20/07:30pm 22.0 23.2 15.8 68 3.8 S 4 4 2 2 1011.0 1010.0 0.0
20/07:00pm 23.0 24.1 15.6 63 4.5 S 4 6 2 3 1010.7 1009.7 0.0

Other Formats:

Comma delimited format used in spreadsheet applications
http://www.bom.gov.au/fwo/IDD60801/IDD60801.94234.axf

JavaScript Object Notation format (JSON) in row-major order
http://www.bom.gov.au/fwo/IDD60801/IDD60801.94234.json